Durant, Iowa
Current Conditions -  °F | °C
As of 2:52 PM on Thursday 27 Nov 2014 (Local Time) from KDVN Reporting Station
Clear Clear  
Wind Chill: -17°   Ceiling: Unl
Heat Index: -8°   Visibility: 10mi
Dew Point: -14°   Wind: 16mph
Humidity: 62%   Direction: 280°W
Pressure: 30.43"   Gusts: NA
Location:  41.6°N, 90.91°W
Report Text: KDVN 272052Z AUTO 28014KT 10SM CLR M08/M14 A3043 RMK AO2 SLP318 T10831144 53002
Loading
Personal Weather Stations






























Interactive Weather Map New forecast layout! Learn more

10-Day Weather Forecast

Advertisements
Track Severe Weather on mobile